sensor_id;sensor_type;location;lat;lon;timestamp;noise_LAeq;noise_LA_min;noise_LA_max;noise_LA01;noise_LA95
72160;Laerm;60045;51.792;10.938;2023-05-19T00:01:46;29.99;28.05;36.76;;
72160;Laerm;60045;51.792;10.938;2023-05-19T00:04:14;29.55;28.24;32.99;;
72160;Laerm;60045;51.792;10.938;2023-05-19T00:06:40;30.63;28.82;34.08;;
72160;Laerm;60045;51.792;10.938;2023-05-19T00:09:07;61.59;30.23;79.03;;
72160;Laerm;60045;51.792;10.938;2023-05-19T00:11:33;32.84;29.27;41.24;;
72160;Laerm;60045;51.792;10.938;2023-05-19T00:14:00;30.67;28.67;43.08;;
72160;Laerm;60045;51.792;10.938;2023-05-19T00:16:27;29.92;28.61;39.57;;
72160;Laerm;60045;51.792;10.938;2023-05-19T00:18:53;29.53;28.22;31.74;;
72160;Laerm;60045;51.792;10.938;2023-05-19T00:21:21;29.15;28.06;31.63;;
72160;Laerm;60045;51.792;10.938;2023-05-19T00:23:46;30.88;29.02;41.33;;
72160;Laerm;60045;51.792;10.938;2023-05-19T00:26:12;53.33;28.10;70.93;;
72160;Laerm;60045;51.792;10.938;2023-05-19T00:28:38;30.29;28.29;34.87;;
72160;Laerm;60045;51.792;10.938;2023-05-19T00:31:04;53.30;28.62;71.97;;
72160;Laerm;60045;51.792;10.938;2023-05-19T00:33:30;29.62;28.21;32.79;;
72160;Laerm;60045;51.792;10.938;2023-05-19T00:35:57;30.32;28.82;36.22;;
72160;Laerm;60045;51.792;10.938;2023-05-19T00:38:23;29.41;28.41;31.88;;
72160;Laerm;60045;51.792;10.938;2023-05-19T00:40:49;29.52;28.32;32.66;;
72160;Laerm;60045;51.792;10.938;2023-05-19T00:43:15;29.66;28.69;33.07;;
72160;Laerm;60045;51.792;10.938;2023-05-19T00:45:41;29.64;27.96;34.18;;
72160;Laerm;60045;51.792;10.938;2023-05-19T00:48:07;31.31;28.12;42.88;;
72160;Laerm;60045;51.792;10.938;2023-05-19T00:50:32;51.78;28.11;69.53;;
72160;Laerm;60045;51.792;10.938;2023-05-19T00:52:58;29.90;28.26;34.20;;
72160;Laerm;60045;51.792;10.938;2023-05-19T00:55:27;29.55;28.40;32.26;;
72160;Laerm;60045;51.792;10.938;2023-05-19T00:57:54;29.40;28.29;38.43;;
72160;Laerm;60045;51.792;10.938;2023-05-19T01:00:20;29.61;28.39;32.54;;
72160;Laerm;60045;51.792;10.938;2023-05-19T01:02:46;30.20;27.66;46.21;;
72160;Laerm;60045;51.792;10.938;2023-05-19T01:05:12;28.39;27.57;30.40;;
72160;Laerm;60045;51.792;10.938;2023-05-19T01:07:38;29.22;27.59;33.07;;
72160;Laerm;60045;51.792;10.938;2023-05-19T01:10:05;29.55;28.13;33.40;;
72160;Laerm;60045;51.792;10.938;2023-05-19T01:12:31;29.86;27.97;38.10;;
72160;Laerm;60045;51.792;10.938;2023-05-19T01:14:57;58.21;28.89;74.73;;
72160;Laerm;60045;51.792;10.938;2023-05-19T01:17:28;52.94;29.09;69.55;;
72160;Laerm;60045;51.792;10.938;2023-05-19T01:19:56;31.05;27.60;40.23;;
72160;Laerm;60045;51.792;10.938;2023-05-19T01:25:10;31.28;27.78;41.51;;
72160;Laerm;60045;51.792;10.938;2023-05-19T01:28:02;28.43;27.57;30.13;;
72160;Laerm;60045;51.792;10.938;2023-05-19T01:30:41;29.05;27.65;34.76;;
72160;Laerm;60045;51.792;10.938;2023-05-19T01:33:08;29.19;27.92;32.76;;
72160;Laerm;60045;51.792;10.938;2023-05-19T01:35:35;30.92;28.14;38.27;;
72160;Laerm;60045;51.792;10.938;2023-05-19T01:38:02;30.09;28.58;35.71;;
72160;Laerm;60045;51.792;10.938;2023-05-19T01:40:29;29.57;28.19;34.32;;
72160;Laerm;60045;51.792;10.938;2023-05-19T01:42:56;29.31;28.07;39.01;;
72160;Laerm;60045;51.792;10.938;2023-05-19T01:45:23;30.38;28.70;34.67;;
72160;Laerm;60045;51.792;10.938;2023-05-19T01:47:50;30.85;28.39;37.82;;
72160;Laerm;60045;51.792;10.938;2023-05-19T01:50:16;28.98;27.94;30.76;;
72160;Laerm;60045;51.792;10.938;2023-05-19T01:52:42;30.34;28.51;35.86;;
72160;Laerm;60045;51.792;10.938;2023-05-19T01:55:08;32.06;29.80;38.84;;
72160;Laerm;60045;51.792;10.938;2023-05-19T02:00:15;31.37;29.40;34.85;;
72160;Laerm;60045;51.792;10.938;2023-05-19T02:05:17;30.09;28.11;33.48;;
72160;Laerm;60045;51.792;10.938;2023-05-19T02:07:57;52.61;30.43;70.40;;
72160;Laerm;60045;51.792;10.938;2023-05-19T02:10:26;33.07;30.54;37.09;;
72160;Laerm;60045;51.792;10.938;2023-05-19T02:12:54;39.44;31.42;50.87;;
72160;Laerm;60045;51.792;10.938;2023-05-19T02:15:23;35.20;29.33;50.33;;
72160;Laerm;60045;51.792;10.938;2023-05-19T02:17:52;32.07;29.10;37.77;;
72160;Laerm;60045;51.792;10.938;2023-05-19T02:20:20;40.03;30.46;57.40;;
72160;Laerm;60045;51.792;10.938;2023-05-19T02:22:48;49.06;30.35;62.23;;
72160;Laerm;60045;51.792;10.938;2023-05-19T02:25:14;52.27;33.48;65.84;;
72160;Laerm;60045;51.792;10.938;2023-05-19T02:27:40;54.44;33.95;65.74;;
72160;Laerm;60045;51.792;10.938;2023-05-19T02:30:06;65.83;40.79;84.89;;
72160;Laerm;60045;51.792;10.938;2023-05-19T02:32:32;56.66;36.50;66.02;;
72160;Laerm;60045;51.792;10.938;2023-05-19T02:34:58;53.38;38.16;66.52;;
72160;Laerm;60045;51.792;10.938;2023-05-19T02:37:24;53.81;37.67;64.43;;
72160;Laerm;60045;51.792;10.938;2023-05-19T02:39:52;58.92;39.93;74.33;;
72160;Laerm;60045;51.792;10.938;2023-05-19T02:42:18;57.18;39.49;69.60;;
72160;Laerm;60045;51.792;10.938;2023-05-19T02:44:43;55.32;39.07;65.47;;
72160;Laerm;60045;51.792;10.938;2023-05-19T02:47:10;55.73;38.81;68.08;;
72160;Laerm;60045;51.792;10.938;2023-05-19T02:49:35;56.02;40.38;66.19;;
72160;Laerm;60045;51.792;10.938;2023-05-19T02:52:04;55.05;39.99;66.86;;
72160;Laerm;60045;51.792;10.938;2023-05-19T02:54:30;55.27;40.01;66.28;;
72160;Laerm;60045;51.792;10.938;2023-05-19T02:56:55;56.28;39.91;68.92;;
72160;Laerm;60045;51.792;10.938;2023-05-19T02:59:21;57.69;39.93;71.01;;
72160;Laerm;60045;51.792;10.938;2023-05-19T03:01:47;56.36;38.38;68.44;;
72160;Laerm;60045;51.792;10.938;2023-05-19T03:04:13;55.76;38.46;67.70;;
72160;Laerm;60045;51.792;10.938;2023-05-19T03:06:39;57.52;36.52;69.96;;
72160;Laerm;60045;51.792;10.938;2023-05-19T03:09:06;59.81;38.18;75.59;;
72160;Laerm;60045;51.792;10.938;2023-05-19T03:11:32;59.31;38.03;74.40;;
72160;Laerm;60045;51.792;10.938;2023-05-19T03:13:57;48.07;36.66;59.76;;
72160;Laerm;60045;51.792;10.938;2023-05-19T03:16:23;53.11;35.84;67.35;;
72160;Laerm;60045;51.792;10.938;2023-05-19T03:18:49;63.24;36.43;82.38;;
72160;Laerm;60045;51.792;10.938;2023-05-19T03:21:15;54.05;35.79;68.95;;
72160;Laerm;60045;51.792;10.938;2023-05-19T03:23:41;57.72;36.50;72.87;;
72160;Laerm;60045;51.792;10.938;2023-05-19T03:26:06;64.21;36.79;82.28;;
72160;Laerm;60045;51.792;10.938;2023-05-19T03:28:32;46.51;34.88;57.08;;
72160;Laerm;60045;51.792;10.938;2023-05-19T03:30:58;56.04;36.33;73.94;;
72160;Laerm;60045;51.792;10.938;2023-05-19T03:33:23;60.44;35.31;74.73;;
72160;Laerm;60045;51.792;10.938;2023-05-19T03:35:51;49.23;32.87;65.66;;
72160;Laerm;60045;51.792;10.938;2023-05-19T03:38:17;58.54;35.45;73.49;;
72160;Laerm;60045;51.792;10.938;2023-05-19T03:40:43;58.60;36.29;72.23;;
72160;Laerm;60045;51.792;10.938;2023-05-19T03:43:09;56.56;34.38;72.11;;
72160;Laerm;60045;51.792;10.938;2023-05-19T03:45:34;48.01;33.06;61.99;;
72160;Laerm;60045;51.792;10.938;2023-05-19T03:48:00;52.87;33.98;67.35;;
72160;Laerm;60045;51.792;10.938;2023-05-19T03:50:26;50.14;35.77;60.84;;
72160;Laerm;60045;51.792;10.938;2023-05-19T03:52:53;62.97;37.29;78.49;;
72160;Laerm;60045;51.792;10.938;2023-05-19T03:55:19;56.46;35.62;72.10;;
72160;Laerm;60045;51.792;10.938;2023-05-19T03:57:45;51.72;33.76;68.62;;
72160;Laerm;60045;51.792;10.938;2023-05-19T04:00:11;57.95;35.00;71.26;;
72160;Laerm;60045;51.792;10.938;2023-05-19T04:02:37;58.48;39.48;71.71;;
72160;Laerm;60045;51.792;10.938;2023-05-19T04:05:02;62.23;36.30;78.52;;
72160;Laerm;60045;51.792;10.938;2023-05-19T04:07:31;61.22;37.18;76.58;;
72160;Laerm;60045;51.792;10.938;2023-05-19T04:09:57;50.40;36.08;63.25;;
72160;Laerm;60045;51.792;10.938;2023-05-19T04:12:22;56.32;36.27;71.63;;
72160;Laerm;60045;51.792;10.938;2023-05-19T04:14:48;57.54;35.59;69.83;;
72160;Laerm;60045;51.792;10.938;2023-05-19T04:17:14;61.92;37.08;79.36;;
72160;Laerm;60045;51.792;10.938;2023-05-19T04:19:40;58.17;34.71;71.79;;
72160;Laerm;60045;51.792;10.938;2023-05-19T04:22:05;56.06;34.46;70.17;;
72160;Laerm;60045;51.792;10.938;2023-05-19T04:24:31;54.89;35.01;71.97;;
72160;Laerm;60045;51.792;10.938;2023-05-19T04:26:57;56.32;34.08;72.92;;
72160;Laerm;60045;51.792;10.938;2023-05-19T04:29:29;53.07;34.97;68.79;;
72160;Laerm;60045;51.792;10.938;2023-05-19T04:31:56;58.20;33.70;71.42;;
72160;Laerm;60045;51.792;10.938;2023-05-19T04:34:22;52.94;35.03;69.20;;
72160;Laerm;60045;51.792;10.938;2023-05-19T04:36:47;59.79;34.74;71.24;;
72160;Laerm;60045;51.792;10.938;2023-05-19T04:39:13;59.08;36.20;74.58;;
72160;Laerm;60045;51.792;10.938;2023-05-19T04:41:39;63.87;35.21;80.96;;
72160;Laerm;60045;51.792;10.938;2023-05-19T04:44:08;52.98;34.39;67.76;;
72160;Laerm;60045;51.792;10.938;2023-05-19T04:46:34;61.58;36.51;77.24;;
72160;Laerm;60045;51.792;10.938;2023-05-19T04:49:00;53.83;32.10;69.70;;
72160;Laerm;60045;51.792;10.938;2023-05-19T04:51:26;61.64;35.58;78.27;;
72160;Laerm;60045;51.792;10.938;2023-05-19T04:53:53;53.41;33.76;69.38;;
72160;Laerm;60045;51.792;10.938;2023-05-19T04:56:18;62.21;35.70;77.29;;
72160;Laerm;60045;51.792;10.938;2023-05-19T04:58:44;55.67;34.86;69.19;;
72160;Laerm;60045;51.792;10.938;2023-05-19T05:01:10;45.56;34.45;58.34;;
72160;Laerm;60045;51.792;10.938;2023-05-19T05:03:38;56.63;34.38;70.15;;
72160;Laerm;60045;51.792;10.938;2023-05-19T05:06:03;63.50;36.42;81.15;;
72160;Laerm;60045;51.792;10.938;2023-05-19T05:08:30;64.41;37.35;78.29;;
72160;Laerm;60045;51.792;10.938;2023-05-19T05:10:56;59.23;34.98;70.79;;
72160;Laerm;60045;51.792;10.938;2023-05-19T05:13:22;52.81;31.64;68.28;;
72160;Laerm;60045;51.792;10.938;2023-05-19T05:15:48;54.02;33.61;68.68;;
72160;Laerm;60045;51.792;10.938;2023-05-19T05:18:16;58.99;34.99;72.40;;
72160;Laerm;60045;51.792;10.938;2023-05-19T05:20:42;61.96;37.63;77.43;;
72160;Laerm;60045;51.792;10.938;2023-05-19T05:23:08;54.63;32.49;68.39;;
72160;Laerm;60045;51.792;10.938;2023-05-19T05:25:34;62.60;35.75;78.38;;
72160;Laerm;60045;51.792;10.938;2023-05-19T05:28:00;56.21;34.20;71.95;;
72160;Laerm;60045;51.792;10.938;2023-05-19T05:30:29;56.07;31.99;70.33;;
72160;Laerm;60045;51.792;10.938;2023-05-19T05:32:55;55.45;33.09;71.25;;
72160;Laerm;60045;51.792;10.938;2023-05-19T05:35:20;57.20;33.79;71.25;;
72160;Laerm;60045;51.792;10.938;2023-05-19T05:37:48;57.93;34.34;69.08;;
72160;Laerm;60045;51.792;10.938;2023-05-19T05:40:14;59.54;34.67;73.13;;
72160;Laerm;60045;51.792;10.938;2023-05-19T05:42:40;63.97;35.31;84.06;;
72160;Laerm;60045;51.792;10.938;2023-05-19T05:45:06;45.67;34.56;56.19;;
72160;Laerm;60045;51.792;10.938;2023-05-19T05:47:32;57.72;34.28;73.90;;
72160;Laerm;60045;51.792;10.938;2023-05-19T05:49:58;60.36;34.96;74.20;;
72160;Laerm;60045;51.792;10.938;2023-05-19T05:52:25;59.85;34.65;76.60;;
72160;Laerm;60045;51.792;10.938;2023-05-19T05:54:54;54.35;33.51;67.25;;
72160;Laerm;60045;51.792;10.938;2023-05-19T05:57:20;58.58;35.04;71.30;;
72160;Laerm;60045;51.792;10.938;2023-05-19T05:59:45;59.42;34.81;76.14;;
72160;Laerm;60045;51.792;10.938;2023-05-19T06:02:11;55.29;33.73;69.40;;
72160;Laerm;60045;51.792;10.938;2023-05-19T06:04:37;63.62;35.64;81.27;;
72160;Laerm;60045;51.792;10.938;2023-05-19T06:07:04;60.49;34.40;74.92;;
72160;Laerm;60045;51.792;10.938;2023-05-19T06:09:30;59.02;36.71;71.37;;
72160;Laerm;60045;51.792;10.938;2023-05-19T06:11:57;60.98;32.57;76.80;;
72160;Laerm;60045;51.792;10.938;2023-05-19T06:14:24;61.50;34.31;77.99;;
72160;Laerm;60045;51.792;10.938;2023-05-19T06:16:49;56.45;32.32;68.79;;
72160;Laerm;60045;51.792;10.938;2023-05-19T06:19:15;61.07;35.26;76.90;;
72160;Laerm;60045;51.792;10.938;2023-05-19T06:21:41;54.20;32.38;69.95;;
72160;Laerm;60045;51.792;10.938;2023-05-19T06:24:07;59.98;31.73;78.67;;
72160;Laerm;60045;51.792;10.938;2023-05-19T06:26:32;63.32;33.32;80.34;;
72160;Laerm;60045;51.792;10.938;2023-05-19T06:28:58;52.06;35.64;66.35;;
72160;Laerm;60045;51.792;10.938;2023-05-19T06:31:24;58.02;32.94;75.87;;
72160;Laerm;60045;51.792;10.938;2023-05-19T06:33:50;54.89;33.43;68.81;;
72160;Laerm;60045;51.792;10.938;2023-05-19T06:36:17;54.92;33.19;70.29;;
72160;Laerm;60045;51.792;10.938;2023-05-19T06:38:43;57.02;31.51;73.03;;
72160;Laerm;60045;51.792;10.938;2023-05-19T06:41:09;58.48;34.05;71.78;;
72160;Laerm;60045;51.792;10.938;2023-05-19T06:43:34;59.07;35.07;71.49;;
72160;Laerm;60045;51.792;10.938;2023-05-19T06:46:00;60.88;33.65;75.01;;
72160;Laerm;60045;51.792;10.938;2023-05-19T06:48:26;52.29;32.09;67.63;;
72160;Laerm;60045;51.792;10.938;2023-05-19T06:50:52;60.40;35.57;72.05;;
72160;Laerm;60045;51.792;10.938;2023-05-19T06:53:18;59.71;34.22;72.32;;
72160;Laerm;60045;51.792;10.938;2023-05-19T06:55:45;58.00;34.91;72.19;;
72160;Laerm;60045;51.792;10.938;2023-05-19T06:58:10;62.05;35.36;76.59;;
72160;Laerm;60045;51.792;10.938;2023-05-19T07:00:36;61.99;39.05;74.54;;
72160;Laerm;60045;51.792;10.938;2023-05-19T07:03:02;60.56;32.99;72.89;;
72160;Laerm;60045;51.792;10.938;2023-05-19T07:05:28;62.80;34.51;78.21;;
72160;Laerm;60045;51.792;10.938;2023-05-19T07:07:53;62.01;36.90;71.94;;
72160;Laerm;60045;51.792;10.938;2023-05-19T07:10:20;60.23;35.63;74.21;;
72160;Laerm;60045;51.792;10.938;2023-05-19T07:12:45;58.57;34.61;71.35;;
72160;Laerm;60045;51.792;10.938;2023-05-19T07:15:11;62.17;39.93;72.87;;
72160;Laerm;60045;51.792;10.938;2023-05-19T07:17:37;57.51;35.48;69.42;;
72160;Laerm;60045;51.792;10.938;2023-05-19T07:20:03;58.12;33.61;70.66;;
72160;Laerm;60045;51.792;10.938;2023-05-19T07:22:34;58.26;34.56;69.81;;
72160;Laerm;60045;51.792;10.938;2023-05-19T07:25:00;60.08;37.74;71.79;;
72160;Laerm;60045;51.792;10.938;2023-05-19T07:27:25;60.96;39.74;71.69;;
72160;Laerm;60045;51.792;10.938;2023-05-19T07:29:51;60.57;37.85;74.35;;
72160;Laerm;60045;51.792;10.938;2023-05-19T07:32:17;67.20;38.95;85.97;;
72160;Laerm;60045;51.792;10.938;2023-05-19T07:34:43;59.93;38.04;74.14;;
72160;Laerm;60045;51.792;10.938;2023-05-19T07:37:08;62.47;35.47;74.72;;
72160;Laerm;60045;51.792;10.938;2023-05-19T07:39:34;62.20;34.58;77.54;;
72160;Laerm;60045;51.792;10.938;2023-05-19T07:42:00;63.31;39.09;77.88;;
72160;Laerm;60045;51.792;10.938;2023-05-19T07:44:26;60.73;39.99;70.85;;
72160;Laerm;60045;51.792;10.938;2023-05-19T07:46:53;61.90;39.23;76.02;;
72160;Laerm;60045;51.792;10.938;2023-05-19T07:49:19;61.82;39.26;72.69;;
72160;Laerm;60045;51.792;10.938;2023-05-19T07:51:45;58.67;39.40;71.48;;
72160;Laerm;60045;51.792;10.938;2023-05-19T07:54:10;65.97;41.14;79.74;;
72160;Laerm;60045;51.792;10.938;2023-05-19T07:56:36;66.23;36.41;82.64;;
72160;Laerm;60045;51.792;10.938;2023-05-19T07:59:02;60.45;35.72;75.15;;
72160;Laerm;60045;51.792;10.938;2023-05-19T08:01:28;67.70;39.88;81.00;;
72160;Laerm;60045;51.792;10.938;2023-05-19T08:03:54;64.40;41.55;77.46;;
72160;Laerm;60045;51.792;10.938;2023-05-19T08:06:20;64.44;41.15;82.27;;
72160;Laerm;60045;51.792;10.938;2023-05-19T08:08:46;68.91;41.96;89.73;;
72160;Laerm;60045;51.792;10.938;2023-05-19T08:11:12;62.98;42.49;74.60;;
72160;Laerm;60045;51.792;10.938;2023-05-19T08:13:38;66.38;42.64;78.61;;
72160;Laerm;60045;51.792;10.938;2023-05-19T08:16:04;67.81;39.24;84.41;;
72160;Laerm;60045;51.792;10.938;2023-05-19T08:18:29;75.29;39.98;92.59;;
72160;Laerm;60045;51.792;10.938;2023-05-19T08:20:55;60.38;37.41;73.49;;
72160;Laerm;60045;51.792;10.938;2023-05-19T08:23:21;59.00;36.78;80.24;;
72160;Laerm;60045;51.792;10.938;2023-05-19T08:25:47;66.35;39.14;84.51;;
72160;Laerm;60045;51.792;10.938;2023-05-19T08:28:12;62.24;41.91;73.34;;
72160;Laerm;60045;51.792;10.938;2023-05-19T08:30:38;62.37;44.91;71.26;;
72160;Laerm;60045;51.792;10.938;2023-05-19T08:33:04;63.18;36.82;74.51;;
72160;Laerm;60045;51.792;10.938;2023-05-19T08:35:30;58.56;37.27;76.96;;
72160;Laerm;60045;51.792;10.938;2023-05-19T08:37:56;62.61;39.93;80.25;;
72160;Laerm;60045;51.792;10.938;2023-05-19T08:40:21;58.48;38.93;77.25;;
72160;Laerm;60045;51.792;10.938;2023-05-19T08:42:47;67.44;43.57;82.78;;
72160;Laerm;60045;51.792;10.938;2023-05-19T08:45:13;59.94;39.42;70.37;;
72160;Laerm;60045;51.792;10.938;2023-05-19T08:47:40;63.38;39.62;77.92;;
72160;Laerm;60045;51.792;10.938;2023-05-19T08:50:06;63.17;41.62;72.46;;
72160;Laerm;60045;51.792;10.938;2023-05-19T08:52:50;62.46;38.64;77.57;;
72160;Laerm;60045;51.792;10.938;2023-05-19T08:55:35;63.55;40.84;74.78;;
72160;Laerm;60045;51.792;10.938;2023-05-19T08:58:05;60.67;37.85;73.82;;
72160;Laerm;60045;51.792;10.938;2023-05-19T09:00:31;66.53;37.06;85.10;;
72160;Laerm;60045;51.792;10.938;2023-05-19T09:02:57;62.44;37.91;72.22;;
72160;Laerm;60045;51.792;10.938;2023-05-19T09:05:24;56.01;37.44;69.65;;
72160;Laerm;60045;51.792;10.938;2023-05-19T09:07:50;58.74;38.52;72.36;;
72160;Laerm;60045;51.792;10.938;2023-05-19T09:10:15;64.71;39.65;75.15;;
72160;Laerm;60045;51.792;10.938;2023-05-19T09:12:42;61.63;39.55;73.33;;
72160;Laerm;60045;51.792;10.938;2023-05-19T09:15:14;59.49;38.80;72.42;;
72160;Laerm;60045;51.792;10.938;2023-05-19T09:17:40;61.83;41.19;72.10;;
72160;Laerm;60045;51.792;10.938;2023-05-19T09:20:08;61.01;40.03;70.72;;
72160;Laerm;60045;51.792;10.938;2023-05-19T09:22:43;63.51;40.15;78.76;;
72160;Laerm;60045;51.792;10.938;2023-05-19T09:25:17;60.40;39.54;70.57;;
72160;Laerm;60045;51.792;10.938;2023-05-19T09:27:44;64.32;39.88;82.18;;
72160;Laerm;60045;51.792;10.938;2023-05-19T09:30:10;64.98;44.07;75.13;;
72160;Laerm;60045;51.792;10.938;2023-05-19T09:32:36;61.80;42.00;73.68;;
72160;Laerm;60045;51.792;10.938;2023-05-19T09:35:02;65.91;44.59;79.66;;
72160;Laerm;60045;51.792;10.938;2023-05-19T09:37:28;58.06;40.60;71.49;;
72160;Laerm;60045;51.792;10.938;2023-05-19T09:39:54;62.09;41.89;74.44;;
72160;Laerm;60045;51.792;10.938;2023-05-19T09:42:23;67.52;43.96;85.35;;
72160;Laerm;60045;51.792;10.938;2023-05-19T09:44:49;64.46;40.39;80.95;;
72160;Laerm;60045;51.792;10.938;2023-05-19T09:47:16;63.79;41.34;79.93;;
72160;Laerm;60045;51.792;10.938;2023-05-19T09:49:45;67.83;41.74;79.79;;
72160;Laerm;60045;51.792;10.938;2023-05-19T09:52:13;62.18;40.48;73.52;;
72160;Laerm;60045;51.792;10.938;2023-05-19T09:54:40;63.54;39.57;79.70;;
72160;Laerm;60045;51.792;10.938;2023-05-19T09:57:05;64.42;37.81;79.17;;
72160;Laerm;60045;51.792;10.938;2023-05-19T09:59:32;61.23;41.62;73.80;;
72160;Laerm;60045;51.792;10.938;2023-05-19T10:01:59;64.02;40.38;80.42;;
72160;Laerm;60045;51.792;10.938;2023-05-19T10:04:26;60.50;42.61;72.42;;
72160;Laerm;60045;51.792;10.938;2023-05-19T10:06:52;65.97;43.90;79.63;;
72160;Laerm;60045;51.792;10.938;2023-05-19T10:09:24;60.88;42.72;72.09;;
72160;Laerm;60045;51.792;10.938;2023-05-19T10:11:53;66.35;43.03;79.13;;
72160;Laerm;60045;51.792;10.938;2023-05-19T10:14:23;58.05;42.59;70.86;;
72160;Laerm;60045;51.792;10.938;2023-05-19T10:16:52;61.56;43.97;72.71;;
72160;Laerm;60045;51.792;10.938;2023-05-19T10:19:22;63.84;43.10;73.56;;
72160;Laerm;60045;51.792;10.938;2023-05-19T10:21:48;59.33;43.01;71.62;;
72160;Laerm;60045;51.792;10.938;2023-05-19T10:24:15;62.70;42.69;71.78;;
72160;Laerm;60045;51.792;10.938;2023-05-19T10:26:48;62.44;44.97;72.45;;
72160;Laerm;60045;51.792;10.938;2023-05-19T10:29:16;64.15;43.27;87.36;;
72160;Laerm;60045;51.792;10.938;2023-05-19T10:31:44;61.78;44.16;79.23;;
72160;Laerm;60045;51.792;10.938;2023-05-19T10:36:44;62.80;40.01;75.81;;
72160;Laerm;60045;51.792;10.938;2023-05-19T10:39:15;64.16;40.77;77.26;;
72160;Laerm;60045;51.792;10.938;2023-05-19T10:46:59;66.75;42.17;80.92;;
72160;Laerm;60045;51.792;10.938;2023-05-19T10:49:25;61.54;42.92;71.74;;
72160;Laerm;60045;51.792;10.938;2023-05-19T10:51:51;61.62;42.34;76.00;;
72160;Laerm;60045;51.792;10.938;2023-05-19T10:54:37;61.97;44.42;74.37;;
72160;Laerm;60045;51.792;10.938;2023-05-19T10:57:04;63.22;44.33;72.89;;
72160;Laerm;60045;51.792;10.938;2023-05-19T10:59:34;62.76;45.18;75.59;;
72160;Laerm;60045;51.792;10.938;2023-05-19T11:02:02;63.00;45.59;74.25;;
72160;Laerm;60045;51.792;10.938;2023-05-19T11:07:23;63.65;45.23;81.27;;
72160;Laerm;60045;51.792;10.938;2023-05-19T11:09:51;59.51;43.01;71.40;;
72160;Laerm;60045;51.792;10.938;2023-05-19T11:12:20;64.98;42.77;80.36;;
72160;Laerm;60045;51.792;10.938;2023-05-19T11:14:52;64.13;42.97;78.11;;
72160;Laerm;60045;51.792;10.938;2023-05-19T11:17:18;62.52;41.53;77.05;;
72160;Laerm;60045;51.792;10.938;2023-05-19T11:19:53;58.94;40.36;69.34;;
72160;Laerm;60045;51.792;10.938;2023-05-19T11:22:22;60.54;39.88;71.14;;
72160;Laerm;60045;51.792;10.938;2023-05-19T11:24:49;61.25;41.59;72.82;;
72160;Laerm;60045;51.792;10.938;2023-05-19T11:27:21;61.26;39.73;72.56;;
72160;Laerm;60045;51.792;10.938;2023-05-19T11:29:49;65.30;40.57;79.48;;
72160;Laerm;60045;51.792;10.938;2023-05-19T11:32:16;61.54;40.98;70.84;;
72160;Laerm;60045;51.792;10.938;2023-05-19T11:34:42;62.86;37.31;80.47;;
72160;Laerm;60045;51.792;10.938;2023-05-19T11:37:09;61.92;39.17;75.34;;
72160;Laerm;60045;51.792;10.938;2023-05-19T11:39:35;62.61;37.24;75.90;;
72160;Laerm;60045;51.792;10.938;2023-05-19T11:42:01;60.25;38.03;72.63;;
72160;Laerm;60045;51.792;10.938;2023-05-19T11:44:27;60.58;39.52;75.90;;
72160;Laerm;60045;51.792;10.938;2023-05-19T11:46:53;56.24;37.74;68.77;;
72160;Laerm;60045;51.792;10.938;2023-05-19T11:49:18;61.08;42.04;71.77;;
72160;Laerm;60045;51.792;10.938;2023-05-19T11:51:44;63.72;43.54;73.72;;
72160;Laerm;60045;51.792;10.938;2023-05-19T11:54:10;58.64;41.84;73.00;;
72160;Laerm;60045;51.792;10.938;2023-05-19T11:56:39;59.03;38.16;72.15;;
72160;Laerm;60045;51.792;10.938;2023-05-19T11:59:06;65.92;41.51;82.23;;
72160;Laerm;60045;51.792;10.938;2023-05-19T12:01:32;63.13;42.74;75.17;;
72160;Laerm;60045;51.792;10.938;2023-05-19T12:03:58;64.49;44.94;73.19;;
72160;Laerm;60045;51.792;10.938;2023-05-19T12:06:24;64.00;43.84;81.01;;
72160;Laerm;60045;51.792;10.938;2023-05-19T12:08:50;67.25;45.46;83.45;;
72160;Laerm;60045;51.792;10.938;2023-05-19T12:11:17;65.17;44.54;76.22;;
72160;Laerm;60045;51.792;10.938;2023-05-19T12:13:42;61.37;44.19;72.77;;
72160;Laerm;60045;51.792;10.938;2023-05-19T12:16:08;63.80;40.31;78.35;;
72160;Laerm;60045;51.792;10.938;2023-05-19T12:18:37;60.75;36.87;73.32;;
72160;Laerm;60045;51.792;10.938;2023-05-19T12:21:03;69.26;42.14;84.98;;
72160;Laerm;60045;51.792;10.938;2023-05-19T12:23:29;58.87;40.18;69.29;;
72160;Laerm;60045;51.792;10.938;2023-05-19T12:25:56;62.87;42.45;72.86;;
72160;Laerm;60045;51.792;10.938;2023-05-19T12:28:23;66.81;40.58;84.91;;
72160;Laerm;60045;51.792;10.938;2023-05-19T12:30:49;59.99;37.73;77.82;;
72160;Laerm;60045;51.792;10.938;2023-05-19T12:33:16;59.26;38.01;69.79;;
72160;Laerm;60045;51.792;10.938;2023-05-19T12:35:44;62.02;45.95;72.94;;
72160;Laerm;60045;51.792;10.938;2023-05-19T12:38:12;62.40;46.96;77.65;;
72160;Laerm;60045;51.792;10.938;2023-05-19T12:40:38;68.78;42.69;85.28;;
72160;Laerm;60045;51.792;10.938;2023-05-19T12:43:04;60.70;40.33;73.57;;
72160;Laerm;60045;51.792;10.938;2023-05-19T12:45:34;63.56;40.47;73.11;;
72160;Laerm;60045;51.792;10.938;2023-05-19T12:48:03;59.19;39.86;70.05;;
72160;Laerm;60045;51.792;10.938;2023-05-19T12:50:29;61.52;42.44;72.13;;
72160;Laerm;60045;51.792;10.938;2023-05-19T12:52:55;58.56;45.48;71.54;;
72160;Laerm;60045;51.792;10.938;2023-05-19T12:55:23;70.13;42.67;86.14;;
72160;Laerm;60045;51.792;10.938;2023-05-19T12:57:49;60.60;40.16;71.66;;
72160;Laerm;60045;51.792;10.938;2023-05-19T13:00:17;64.62;43.85;78.47;;
72160;Laerm;60045;51.792;10.938;2023-05-19T13:02:56;65.41;43.11;76.50;;
72160;Laerm;60045;51.792;10.938;2023-05-19T13:05:23;62.33;44.78;72.36;;
72160;Laerm;60045;51.792;10.938;2023-05-19T13:07:56;57.67;40.84;71.52;;
72160;Laerm;60045;51.792;10.938;2023-05-19T13:10:22;63.43;44.12;76.36;;
72160;Laerm;60045;51.792;10.938;2023-05-19T13:12:49;62.32;43.83;74.32;;
72160;Laerm;60045;51.792;10.938;2023-05-19T13:15:16;66.07;43.30;79.45;;
72160;Laerm;60045;51.792;10.938;2023-05-19T13:17:41;71.82;48.54;91.33;;
72160;Laerm;60045;51.792;10.938;2023-05-19T13:20:07;65.86;46.36;76.68;;
72160;Laerm;60045;51.792;10.938;2023-05-19T13:22:33;64.23;43.58;79.21;;
72160;Laerm;60045;51.792;10.938;2023-05-19T13:24:59;58.63;38.44;72.29;;
72160;Laerm;60045;51.792;10.938;2023-05-19T13:27:26;59.89;40.39;71.76;;
72160;Laerm;60045;51.792;10.938;2023-05-19T13:29:52;61.81;42.13;72.49;;
72160;Laerm;60045;51.792;10.938;2023-05-19T13:32:17;62.97;44.35;74.12;;
72160;Laerm;60045;51.792;10.938;2023-05-19T13:34:43;67.13;42.86;80.88;;
72160;Laerm;60045;51.792;10.938;2023-05-19T13:37:09;64.25;40.99;77.14;;
72160;Laerm;60045;51.792;10.938;2023-05-19T13:39:35;56.23;38.95;69.28;;
72160;Laerm;60045;51.792;10.938;2023-05-19T13:42:01;60.90;40.42;72.22;;
72160;Laerm;60045;51.792;10.938;2023-05-19T13:44:27;62.14;40.47;70.96;;
72160;Laerm;60045;51.792;10.938;2023-05-19T13:46:53;69.93;41.70;93.34;;
72160;Laerm;60045;51.792;10.938;2023-05-19T13:49:18;66.51;44.00;82.98;;